Time;durP1;ratioP1;P1;durP2;ratioP2;P2;SDS_P1;SDS_P2;PMS_P1;PMS_P2;Temp;Humidity;BMP_temperature;BMP_pressure;BME280_temperature;BME280_humidity;BME280_pressure;Samples;Min_cycle;Max_cycle;Signal;HPM_P1;HPM_P2
2023/06/12 00:01:57;;;;;;;3.42;2.60;;;23.00;48.10;;;;;;5038787;28;20201;-69
2023/06/12 00:04:23;;;;;;;3.08;2.67;;;22.90;48.10;;;;;;5019863;28;20232;-68
2023/06/12 00:06:56;;;;;;;3.20;2.63;;;22.90;48.20;;;;;;5030631;28;20198;-69
2023/06/12 00:09:22;;;;;;;3.38;2.55;;;22.90;48.40;;;;;;5021947;28;20255;-69
2023/06/12 00:11:50;;;;;;;3.25;2.55;;;22.80;48.40;;;;;;5055990;28;20197;-68
2023/06/12 00:14:18;;;;;;;3.88;2.60;;;22.80;48.50;;;;;;5055767;28;20173;-69
2023/06/12 00:16:43;;;;;;;3.60;2.85;;;22.70;48.60;;;;;;5046084;28;20325;-68
2023/06/12 00:19:11;;;;;;;2.85;2.55;;;22.60;48.70;;;;;;5019548;28;20269;-68
2023/06/12 00:21:37;;;;;;;4.20;2.80;;;22.60;48.80;;;;;;5019396;28;20201;-68
2023/06/12 00:24:08;;;;;;;4.93;3.13;;;22.50;48.80;;;;;;5028110;28;20471;-69
2023/06/12 00:26:36;;;;;;;3.08;2.70;;;22.50;48.90;;;;;;5038568;28;20463;-69
2023/06/12 00:29:02;;;;;;;4.15;2.92;;;22.40;49.10;;;;;;5056001;28;20264;-68
2023/06/12 00:31:32;;;;;;;3.88;2.80;;;22.40;49.20;;;;;;5055385;28;20220;-68
2023/06/12 00:34:00;;;;;;;4.28;2.80;;;22.30;49.40;;;;;;5055507;28;20185;-69
2023/06/12 00:36:26;;;;;;;4.80;2.60;;;22.30;49.50;;;;;;5038680;28;20196;-68
2023/06/12 00:38:55;;;;;;;4.35;2.97;;;22.20;49.20;;;;;;5039160;28;20238;-68
2023/06/12 00:41:24;;;;;;;3.47;2.53;;;22.20;49.40;;;;;;5055235;28;20209;-68
2023/06/12 00:43:52;;;;;;;3.40;2.70;;;22.20;49.60;;;;;;5055531;28;20268;-68
2023/06/12 00:46:18;;;;;;;3.25;2.92;;;22.10;49.80;;;;;;5051735;28;20221;-68
2023/06/12 00:48:44;;;;;;;3.42;2.63;;;22.10;49.80;;;;;;5088231;22;20208;-68
2023/06/12 00:51:10;;;;;;;3.70;2.72;;;22.00;49.80;;;;;;5055458;28;20263;-69
2023/06/12 00:53:38;;;;;;;3.20;2.80;;;22.00;49.90;;;;;;5054789;28;20173;-68
2023/06/12 00:56:03;;;;;;;2.75;2.55;;;22.00;50.00;;;;;;5038417;28;20255;-68
2023/06/12 00:58:30;;;;;;;2.72;2.42;;;21.90;50.10;;;;;;5055219;28;20199;-69
2023/06/12 01:00:56;;;;;;;4.10;2.67;;;21.90;50.20;;;;;;5055026;28;20181;-68
2023/06/12 01:03:24;;;;;;;2.60;2.40;;;21.80;50.30;;;;;;5038367;28;20169;-68
2023/06/12 01:05:55;;;;;;;3.10;2.78;;;21.80;50.40;;;;;;5038164;28;20224;-68
2023/06/12 01:08:28;;;;;;;2.60;2.40;;;21.70;50.50;;;;;;5037970;28;20198;-68
2023/06/12 01:11:13;;;;;;;3.30;2.97;;;21.70;51.00;;;;;;5055363;28;20170;-68
2023/06/12 01:13:39;;;;;;;4.30;2.90;;;21.60;51.30;;;;;;5055162;28;20192;-68
2023/06/12 01:16:05;;;;;;;3.28;2.90;;;21.60;50.80;;;;;;5054746;28;20224;-68
2023/06/12 01:18:32;;;;;;;3.72;3.08;;;21.60;51.00;;;;;;5037641;28;20223;-68
2023/06/12 01:21:01;;;;;;;3.67;3.20;;;21.50;51.00;;;;;;5054052;28;20177;-69
2023/06/12 01:24:00;;;;;;;3.53;3.00;;;21.50;51.10;;;;;;5042650;28;20193;-68
2023/06/12 01:26:29;;;;;;;3.05;2.75;;;21.40;51.80;;;;;;5025226;28;20275;-68
2023/06/12 01:29:19;;;;;;;3.03;2.72;;;21.40;51.30;;;;;;5038107;28;20196;-68
2023/06/12 01:32:04;;;;;;;3.38;2.90;;;21.30;52.30;;;;;;5037974;28;20169;-69
2023/06/12 01:34:51;;;;;;;3.40;3.00;;;21.20;52.00;;;;;;5054547;28;20195;-70
2023/06/12 01:37:26;;;;;;;3.47;2.95;;;21.20;52.40;;;;;;5037829;28;20268;-70
2023/06/12 01:40:02;;;;;;;3.28;2.60;;;21.10;52.10;;;;;;5054606;28;20176;-69
2023/06/12 01:42:33;;;;;;;3.40;3.10;;;21.10;52.20;;;;;;5055114;28;20207;-69
2023/06/12 01:45:01;;;;;;;3.20;2.90;;;21.10;52.00;;;;;;5037761;28;20173;-69
2023/06/12 01:47:27;;;;;;;3.15;2.80;;;21.10;52.30;;;;;;5054483;28;20258;-69
2023/06/12 01:49:56;;;;;;;3.63;2.72;;;21.00;52.10;;;;;;5054463;28;20232;-69
2023/06/12 01:52:21;;;;;;;4.82;2.97;;;21.00;52.50;;;;;;5037557;28;20169;-68
2023/06/12 01:54:51;;;;;;;3.20;2.90;;;21.00;52.40;;;;;;5037728;28;20200;-69
2023/06/12 01:57:20;;;;;;;5.85;2.95;;;20.90;52.50;;;;;;5037371;28;20223;-68
2023/06/12 01:59:53;;;;;;;3.53;3.08;;;20.90;52.60;;;;;;5024573;28;20189;-69
2023/06/12 02:02:21;;;;;;;3.70;3.28;;;20.90;52.90;;;;;;5049519;28;20224;-69
2023/06/12 02:04:47;;;;;;;3.72;2.95;;;20.80;52.70;;;;;;5037351;28;20228;-68
2023/06/12 02:07:16;;;;;;;3.50;3.10;;;20.70;53.40;;;;;;5054182;28;20236;-68
2023/06/12 02:09:44;;;;;;;6.07;3.47;;;20.70;53.00;;;;;;5037254;28;20207;-69
2023/06/12 02:12:14;;;;;;;4.22;3.10;;;20.60;53.20;;;;;;5053761;28;20199;-69
2023/06/12 02:14:41;;;;;;;3.80;3.17;;;20.50;53.30;;;;;;5054103;28;20193;-68
2023/06/12 02:17:09;;;;;;;4.47;3.33;;;20.50;53.30;;;;;;5052183;28;20169;-69
2023/06/12 02:19:37;;;;;;;3.25;2.90;;;20.40;53.70;;;;;;5055124;28;20174;-69
2023/06/12 02:22:02;;;;;;;4.07;3.10;;;20.40;53.70;;;;;;5051091;28;20162;-69
2023/06/12 02:24:32;;;;;;;4.35;3.22;;;20.30;53.70;;;;;;5054507;28;20181;-69
2023/06/12 02:26:58;;;;;;;3.45;3.05;;;20.30;54.10;;;;;;5037136;28;20266;-68
2023/06/12 02:29:24;;;;;;;4.15;2.97;;;20.20;53.80;;;;;;5053847;28;20189;-69
2023/06/12 02:31:49;;;;;;;3.15;2.70;;;20.20;54.10;;;;;;5056186;28;20189;-69
2023/06/12 02:34:15;;;;;;;4.93;2.97;;;20.10;54.00;;;;;;5057842;28;20263;-69
2023/06/12 02:36:42;;;;;;;4.13;3.10;;;20.10;54.20;;;;;;5041451;28;20259;-69
2023/06/12 02:39:13;;;;;;;3.65;3.15;;;20.00;54.30;;;;;;5040895;28;20501;-69
2023/06/12 02:41:48;;;;;;;3.47;3.10;;;20.00;54.60;;;;;;5057703;28;20254;-68
2023/06/12 02:44:15;;;;;;;3.65;2.88;;;19.90;54.90;;;;;;5041447;28;20165;-68
2023/06/12 02:46:56;;;;;;;3.85;3.00;;;20.00;54.60;;;;;;5040936;28;20205;-68
2023/06/12 02:49:23;;;;;;;4.40;3.13;;;19.90;55.50;;;;;;5053361;28;20240;-69
2023/06/12 02:51:48;;;;;;;3.47;3.03;;;19.90;54.90;;;;;;5021270;28;20497;-68
2023/06/12 02:54:15;;;;;;;4.30;3.20;;;19.80;55.00;;;;;;5033992;28;20204;-68
2023/06/12 02:56:47;;;;;;;4.05;3.58;;;19.80;55.40;;;;;;5040866;28;20207;-68
2023/06/12 02:59:18;;;;;;;4.70;3.60;;;19.70;56.20;;;;;;5040828;28;20185;-68
2023/06/12 03:01:47;;;;;;;4.18;3.30;;;19.70;56.30;;;;;;5066446;28;20197;-69
2023/06/12 03:04:15;;;;;;;3.83;3.03;;;19.60;55.80;;;;;;5057154;28;20385;-69
2023/06/12 03:06:44;;;;;;;3.40;3.00;;;19.60;56.00;;;;;;5057249;28;20219;-68
2023/06/12 03:09:11;;;;;;;3.30;2.95;;;19.50;56.00;;;;;;5057125;28;20204;-68
2023/06/12 03:11:37;;;;;;;4.78;3.40;;;19.50;56.70;;;;;;5040568;28;20170;-69
2023/06/12 03:14:03;;;;;;;3.55;3.17;;;19.40;56.40;;;;;;5054092;28;20243;-68
2023/06/12 03:16:32;;;;;;;3.92;3.40;;;19.40;56.70;;;;;;5029228;28;20189;-68
2023/06/12 03:19:03;;;;;;;4.00;3.33;;;19.40;57.30;;;;;;5037373;28;20189;-68
2023/06/12 03:21:28;;;;;;;4.25;3.45;;;19.30;57.10;;;;;;5055571;28;20177;-68
2023/06/12 03:23:56;;;;;;;7.13;5.70;;;19.30;57.20;;;;;;5040211;28;20242;-68
2023/06/12 03:26:24;;;;;;;5.35;3.90;;;19.20;57.30;;;;;;5040540;28;20194;-68
2023/06/12 03:28:50;;;;;;;5.70;3.85;;;19.20;57.70;;;;;;5040061;28;20216;-68
2023/06/12 03:31:18;;;;;;;15.60;11.70;;;19.20;57.80;;;;;;5040175;28;20170;-69
2023/06/12 03:33:44;;;;;;;7.28;6.57;;;19.10;57.90;;;;;;5040052;28;20190;-69
2023/06/12 03:36:16;;;;;;;5.90;5.30;;;19.10;58.10;;;;;;5056050;28;20177;-69
2023/06/12 03:38:42;;;;;;;5.70;4.90;;;19.00;58.90;;;;;;5040028;28;20201;-68
2023/06/12 03:41:10;;;;;;;4.30;3.90;;;19.00;58.40;;;;;;5056589;28;20276;-69
2023/06/12 03:43:35;;;;;;;5.25;3.63;;;19.00;58.40;;;;;;5055703;28;20437;-69
2023/06/12 03:46:01;;;;;;;4.00;3.60;;;19.00;58.30;;;;;;5056870;28;20468;-68
2023/06/12 03:48:26;;;;;;;4.05;3.47;;;19.00;58.50;;;;;;5056332;28;20201;-68
2023/06/12 03:50:54;;;;;;;5.03;4.03;;;19.00;58.60;;;;;;5039527;28;20189;-68
2023/06/12 03:53:22;;;;;;;5.70;3.95;;;19.00;58.80;;;;;;5056599;28;20240;-68
2023/06/12 03:55:50;;;;;;;32.20;26.40;;;19.00;58.90;;;;;;5056169;28;20183;-69
2023/06/12 03:58:20;;;;;;;12.80;11.50;;;19.10;59.20;;;;;;5039345;28;20166;-68
2023/06/12 04:00:47;;;;;;;8.57;7.68;;;19.00;59.10;;;;;;5039852;28;20186;-68
2023/06/12 04:03:17;;;;;;;7.32;6.35;;;19.20;59.40;;;;;;5039514;28;20193;-68
2023/06/12 04:05:47;;;;;;;6.85;5.40;;;19.10;59.60;;;;;;5056203;28;20376;-70
2023/06/12 04:08:13;;;;;;;5.50;4.40;;;19.20;59.60;;;;;;5056229;28;20177;-69
2023/06/12 04:10:39;;;;;;;5.78;4.25;;;19.20;59.80;;;;;;5055749;28;20201;-69
2023/06/12 04:13:05;;;;;;;5.10;3.55;;;19.20;60.10;;;;;;5055475;28;20177;-69
2023/06/12 04:15:37;;;;;;;18.60;14.23;;;19.20;60.30;;;;;;5039557;28;20193;-69
2023/06/12 04:18:06;;;;;;;13.57;11.57;;;19.20;60.90;;;;;;5055870;28;20201;-69
2023/06/12 04:20:33;;;;;;;9.13;7.72;;;19.20;60.70;;;;;;5038750;28;20292;-69
2023/06/12 04:23:04;;;;;;;6.93;6.22;;;19.30;61.00;;;;;;5039540;28;20181;-69
2023/06/12 04:25:32;;;;;;;5.70;4.88;;;19.30;61.30;;;;;;5056683;28;20197;-69
2023/06/12 04:27:59;;;;;;;5.88;4.57;;;19.30;61.50;;;;;;5039066;28;20197;-69
2023/06/12 04:30:27;;;;;;;5.40;4.18;;;19.40;62.00;;;;;;5055968;28;20197;-69
2023/06/12 04:32:56;;;;;;;4.35;3.80;;;19.40;62.30;;;;;;5055367;28;20178;-68
2023/06/12 04:35:22;;;;;;;4.10;3.58;;;19.40;63.20;;;;;;5049296;28;20170;-69
2023/06/12 04:37:52;;;;;;;12.60;9.93;;;19.50;63.70;;;;;;5035540;28;20170;-69
2023/06/12 04:40:22;;;;;;;5.97;4.93;;;19.50;63.50;;;;;;5054934;28;20188;-68
2023/06/12 04:42:47;;;;;;;5.43;4.15;;;19.50;63.50;;;;;;5055268;28;20176;-69
2023/06/12 04:45:16;;;;;;;5.22;3.83;;;19.60;63.80;;;;;;5038858;28;20182;-69
2023/06/12 04:47:42;;;;;;;4.40;3.30;;;19.60;63.90;;;;;;5055284;28;20174;-69
2023/06/12 04:50:12;;;;;;;3.50;3.10;;;19.70;64.10;;;;;;5055134;28;20551;-70
2023/06/12 04:52:39;;;;;;;3.70;3.33;;;19.70;64.60;;;;;;5055372;28;20256;-69
2023/06/12 04:55:08;;;;;;;5.18;3.15;;;19.80;64.50;;;;;;5054373;28;20181;-71
2023/06/12 04:57:36;;;;;;;4.03;3.40;;;19.90;64.40;;;;;;5043671;28;20212;-69
2023/06/12 05:00:05;;;;;;;4.60;3.33;;;19.90;64.50;;;;;;5019020;28;20180;-69
2023/06/12 05:02:33;;;;;;;3.80;3.42;;;19.90;64.60;;;;;;5054962;28;20200;-69
2023/06/12 05:05:00;;;;;;;4.30;3.08;;;20.00;64.70;;;;;;5052802;28;20177;-68
2023/06/12 05:07:27;;;;;;;3.90;3.50;;;20.00;64.90;;;;;;5035462;28;20280;-69
2023/06/12 05:09:53;;;;;;;3.38;3.03;;;20.00;65.00;;;;;;5036667;28;20178;-69
2023/06/12 05:12:19;;;;;;;4.78;3.42;;;20.10;65.00;;;;;;5035461;28;20197;-70
2023/06/12 05:14:44;;;;;;;4.82;3.40;;;20.10;65.70;;;;;;5035089;28;20186;-70
2023/06/12 05:17:13;;;;;;;3.65;3.08;;;20.20;65.50;;;;;;5028611;28;20201;-70
2023/06/12 05:19:38;;;;;;;4.13;3.03;;;20.20;65.90;;;;;;5054367;28;20264;-70
2023/06/12 05:22:05;;;;;;;7.07;4.28;;;20.20;65.60;;;;;;5038050;28;20224;-70
2023/06/12 05:24:31;;;;;;;4.55;4.10;;;20.30;65.80;;;;;;5037372;28;20169;-68
2023/06/12 05:26:56;;;;;;;5.25;3.72;;;20.30;65.70;;;;;;5054343;28;20211;-70
2023/06/12 05:29:22;;;;;;;4.40;3.40;;;20.40;65.80;;;;;;5038129;28;20220;-69
2023/06/12 05:31:47;;;;;;;4.85;3.30;;;20.40;66.50;;;;;;5054487;28;20169;-70
2023/06/12 05:34:14;;;;;;;4.10;2.95;;;20.50;65.80;;;;;;5038079;28;20174;-69
2023/06/12 05:36:40;;;;;;;4.15;3.35;;;20.50;65.70;;;;;;5054311;28;20181;-71
2023/06/12 05:39:05;;;;;;;3.47;3.17;;;20.60;65.90;;;;;;5037214;28;20221;-70
2023/06/12 05:41:34;;;;;;;3.85;3.25;;;20.60;65.90;;;;;;5034710;28;20185;-70
2023/06/12 05:44:01;;;;;;;2.95;2.65;;;20.70;65.90;;;;;;5031645;28;20193;-71
2023/06/12 05:46:27;;;;;;;4.00;3.60;;;20.70;66.00;;;;;;5037478;28;20200;-70
2023/06/12 05:48:57;;;;;;;4.22;3.42;;;20.70;65.90;;;;;;5054374;28;20250;-70
2023/06/12 05:51:24;;;;;;;5.45;3.15;;;20.80;66.10;;;;;;5054208;28;20181;-69
2023/06/12 05:53:52;;;;;;;4.10;3.28;;;20.90;66.10;;;;;;5037370;28;20200;-70
2023/06/12 05:56:17;;;;;;;5.50;3.50;;;20.90;66.40;;;;;;5054442;28;20244;-70
2023/06/12 05:58:44;;;;;;;3.40;3.10;;;21.00;66.20;;;;;;5053849;28;20173;-70
2023/06/12 06:01:11;;;;;;;4.80;3.28;;;21.00;66.00;;;;;;5037418;28;20223;-70
2023/06/12 06:03:42;;;;;;;3.88;3.10;;;21.10;66.10;;;;;;5054470;28;20181;-70
2023/06/12 06:06:08;;;;;;;3.92;3.53;;;21.10;66.00;;;;;;5053946;28;20275;-70
2023/06/12 06:08:34;;;;;;;3.88;3.08;;;21.20;66.00;;;;;;5054264;28;20181;-70
2023/06/12 06:11:04;;;;;;;3.70;3.13;;;21.20;66.10;;;;;;5037682;28;20238;-68
2023/06/12 06:13:30;;;;;;;3.95;3.33;;;21.30;66.40;;;;;;5037425;28;20174;-69
2023/06/12 06:15:55;;;;;;;4.35;3.50;;;21.30;66.30;;;;;;5037902;28;20292;-66
2023/06/12 06:18:23;;;;;;;3.78;3.25;;;21.40;66.50;;;;;;5037312;28;20170;-68
2023/06/12 06:20:48;;;;;;;3.30;3.00;;;21.40;66.80;;;;;;5037264;28;20189;-67
2023/06/12 06:23:14;;;;;;;4.88;3.70;;;21.50;66.70;;;;;;5036980;28;20183;-68
2023/06/12 06:25:40;;;;;;;3.50;3.20;;;21.50;66.40;;;;;;5037449;28;20228;-68
2023/06/12 06:28:06;;;;;;;5.20;3.70;;;21.60;66.60;;;;;;5036949;28;20192;-68
2023/06/12 06:30:34;;;;;;;4.45;3.22;;;21.60;66.60;;;;;;5053661;28;20200;-68
2023/06/12 06:33:00;;;;;;;4.38;3.60;;;21.70;66.80;;;;;;5037558;28;20174;-67
2023/06/12 06:35:25;;;;;;;4.75;3.58;;;21.80;66.90;;;;;;5036400;28;20399;-68
2023/06/12 06:37:51;;;;;;;3.75;3.00;;;21.80;66.90;;;;;;5053838;28;20178;-68
2023/06/12 06:40:19;;;;;;;6.78;3.92;;;21.90;66.80;;;;;;5053756;28;20192;-67
2023/06/12 06:42:49;;;;;;;5.03;3.80;;;22.00;66.90;;;;;;5036896;28;20174;-67
2023/06/12 06:45:15;;;;;;;4.38;3.80;;;22.00;67.00;;;;;;5054085;28;20161;-68
2023/06/12 06:47:43;;;;;;;5.85;3.72;;;22.10;66.90;;;;;;5033675;28;20213;-68
2023/06/12 06:50:14;;;;;;;4.10;3.70;;;22.20;67.40;;;;;;5079729;23;20225;-68
2023/06/12 06:52:42;;;;;;;5.15;3.50;;;22.30;67.00;;;;;;5053319;28;20206;-68
2023/06/12 06:55:12;;;;;;;4.35;3.60;;;22.30;67.00;;;;;;5036880;28;20168;-68
2023/06/12 06:57:38;;;;;;;4.45;3.80;;;22.40;67.10;;;;;;5036335;28;20197;-68
2023/06/12 07:00:06;;;;;;;4.15;3.75;;;22.50;67.20;;;;;;5036482;28;20242;-68
2023/06/12 07:02:34;;;;;;;4.32;3.65;;;22.60;67.20;;;;;;5037027;28;20216;-68
2023/06/12 07:04:59;;;;;;;4.25;3.30;;;22.70;67.00;;;;;;5047287;28;20174;-68
2023/06/12 07:07:27;;;;;;;3.78;3.45;;;22.80;66.90;;;;;;5069733;28;20213;-68
2023/06/12 07:09:53;;;;;;;3.97;3.58;;;22.90;66.70;;;;;;5036784;28;20173;-68
2023/06/12 07:12:21;;;;;;;6.05;3.53;;;22.90;66.90;;;;;;5052405;28;20197;-68
2023/06/12 07:14:47;;;;;;;4.10;3.70;;;23.00;66.90;;;;;;5063857;28;20173;-67
2023/06/12 07:17:14;;;;;;;6.15;3.90;;;23.10;66.70;;;;;;5036973;28;20316;-67
2023/06/12 07:19:43;;;;;;;4.32;3.60;;;23.20;66.90;;;;;;5019928;28;20185;-67
2023/06/12 07:22:09;;;;;;;4.32;3.30;;;23.30;66.80;;;;;;5036913;28;20181;-67
2023/06/12 07:24:39;;;;;;;3.83;3.30;;;23.40;66.70;;;;;;5036863;28;20194;-67
2023/06/12 07:27:10;;;;;;;3.35;3.05;;;23.50;66.60;;;;;;5036624;28;20228;-67
2023/06/12 07:29:38;;;;;;;4.10;3.60;;;23.60;66.90;;;;;;5040236;28;20198;-70
2023/06/12 07:32:07;;;;;;;4.05;3.65;;;23.70;66.70;;;;;;5020574;28;20166;-67
2023/06/12 07:34:32;;;;;;;3.53;3.22;;;23.70;66.50;;;;;;5040354;28;20230;-68
2023/06/12 07:37:02;;;;;;;5.07;3.70;;;23.80;66.60;;;;;;5056361;28;20165;-67
2023/06/12 07:39:28;;;;;;;4.55;3.83;;;23.90;66.40;;;;;;5060418;28;20208;-68
2023/06/12 07:41:58;;;;;;;4.03;3.60;;;24.00;66.50;;;;;;5033301;28;20182;-67
2023/06/12 07:44:24;;;;;;;4.00;3.60;;;24.10;66.60;;;;;;5036638;28;20445;-68
2023/06/12 07:46:52;;;;;;;4.32;3.60;;;24.20;66.60;;;;;;5064999;28;20204;-68
2023/06/12 07:49:18;;;;;;;3.53;3.22;;;24.20;66.50;;;;;;5068203;28;20206;-67
2023/06/12 07:51:43;;;;;;;4.18;3.38;;;24.30;67.30;;;;;;5045513;28;20243;-66
2023/06/12 07:54:14;;;;;;;3.97;3.60;;;24.40;66.70;;;;;;5052615;28;20194;-68
2023/06/12 07:56:44;;;;;;;4.32;3.67;;;24.50;66.60;;;;;;5033535;28;20248;-68
2023/06/12 07:59:14;;;;;;;3.35;3.05;;;24.60;66.60;;;;;;5020079;28;20204;-68
2023/06/12 08:01:40;;;;;;;4.20;3.05;;;24.70;66.40;;;;;;5019397;28;20276;-67
2023/06/12 08:04:14;;;;;;;4.10;3.60;;;24.80;66.30;;;;;;5019776;28;20295;-68
2023/06/12 08:06:45;;;;;;;3.92;3.53;;;24.90;65.90;;;;;;5019806;28;20195;-68
2023/06/12 08:09:10;;;;;;;4.35;3.40;;;24.90;65.50;;;;;;5052799;28;20225;-68
2023/06/12 08:11:36;;;;;;;3.60;3.28;;;24.90;66.10;;;;;;5062169;28;20243;-69
2023/06/12 08:14:04;;;;;;;4.10;3.55;;;25.00;65.30;;;;;;5019678;28;20193;-69
2023/06/12 08:16:31;;;;;;;3.67;3.22;;;25.00;65.20;;;;;;5043883;28;20188;-69
2023/06/12 08:18:59;;;;;;;4.40;3.30;;;25.10;65.40;;;;;;5072411;28;20197;-69
2023/06/12 08:21:27;;;;;;;3.65;3.28;;;25.10;65.50;;;;;;5019702;28;20170;-69
2023/06/12 08:23:55;;;;;;;5.28;3.58;;;25.20;65.60;;;;;;5027444;28;20170;-68
2023/06/12 08:26:21;;;;;;;4.22;3.83;;;25.20;65.40;;;;;;5072126;28;20204;-70
2023/06/12 08:28:52;;;;;;;7.88;3.95;;;25.30;65.10;;;;;;5071697;28;20174;-69
2023/06/12 08:31:18;;;;;;;4.03;3.63;;;25.40;65.00;;;;;;5055338;28;20197;-70
2023/06/12 08:33:44;;;;;;;4.47;4.07;;;25.40;64.90;;;;;;5019395;28;20231;-69
2023/06/12 08:36:10;;;;;;;4.47;4.03;;;25.50;64.80;;;;;;5024283;28;20206;-69
2023/06/12 08:38:36;;;;;;;4.15;3.75;;;25.50;64.70;;;;;;5019109;28;20265;-69
2023/06/12 08:41:08;;;;;;;4.20;3.80;;;25.60;64.60;;;;;;5020546;28;20202;-70
2023/06/12 08:43:35;;;;;;;4.25;3.83;;;25.70;64.70;;;;;;5072621;28;20177;-70
2023/06/12 08:46:07;;;;;;;4.10;3.70;;;25.70;65.20;;;;;;5052873;28;20450;-70
2023/06/12 08:48:33;;;;;;;4.43;4.03;;;25.80;64.60;;;;;;5044464;28;20174;-69
2023/06/12 08:51:01;;;;;;;4.15;3.75;;;25.90;64.50;;;;;;5072123;28;20235;-70
2023/06/12 08:53:29;;;;;;;3.70;3.22;;;26.00;64.70;;;;;;5068318;28;20162;-68
2023/06/12 08:55:56;;;;;;;5.13;3.75;;;26.10;64.90;;;;;;5038771;28;20177;-69
2023/06/12 08:58:26;;;;;;;4.03;3.50;;;26.20;64.70;;;;;;5038218;28;20188;-70
2023/06/12 09:00:52;;;;;;;4.07;3.60;;;26.30;64.50;;;;;;5038600;28;20177;-69
2023/06/12 09:03:19;;;;;;;5.90;4.22;;;26.40;64.50;;;;;;5039089;28;20176;-69
2023/06/12 09:05:46;;;;;;;4.47;3.53;;;26.50;63.90;;;;;;5036134;28;20190;-71
2023/06/12 09:08:13;;;;;;;4.65;3.80;;;26.50;63.60;;;;;;5033006;28;20197;-69
2023/06/12 09:10:41;;;;;;;5.30;4.00;;;26.60;63.00;;;;;;5020822;28;20170;-68
2023/06/12 09:13:12;;;;;;;4.10;3.70;;;26.70;62.80;;;;;;5018555;28;20204;-68
2023/06/12 09:15:48;;;;;;;6.22;3.80;;;26.80;62.60;;;;;;5021487;28;20185;-69
2023/06/12 09:18:17;;;;;;;4.70;3.67;;;27.00;62.30;;;;;;5071349;28;20193;-70
2023/06/12 09:20:45;;;;;;;3.83;3.42;;;27.10;62.00;;;;;;5060853;28;20344;-69
2023/06/12 09:23:13;;;;;;;4.45;4.05;;;27.10;62.00;;;;;;5037602;28;20557;-68
2023/06/12 09:25:43;;;;;;;4.07;3.67;;;27.30;61.90;;;;;;5054803;28;20184;-68
2023/06/12 09:28:11;;;;;;;4.10;3.70;;;27.40;61.80;;;;;;5053514;28;20193;-69
2023/06/12 09:30:40;;;;;;;3.90;3.50;;;27.40;61.50;;;;;;5054957;28;20165;-69
2023/06/12 09:33:08;;;;;;;4.15;3.75;;;27.60;61.20;;;;;;5053437;28;20193;-68
2023/06/12 09:35:53;;;;;;;4.40;4.00;;;27.60;61.30;;;;;;5070914;28;20230;-69
2023/06/12 09:38:33;;;;;;;4.18;3.78;;;27.80;60.50;;;;;;5071172;28;20197;-69
2023/06/12 09:41:00;;;;;;;3.75;3.33;;;27.90;60.40;;;;;;5070421;28;20169;-69
2023/06/12 09:43:27;;;;;;;4.13;3.42;;;27.90;60.80;;;;;;5054391;28;20205;-69
2023/06/12 09:45:53;;;;;;;4.35;3.50;;;28.00;60.70;;;;;;5071077;28;20221;-69
2023/06/12 09:48:20;;;;;;;3.40;3.10;;;28.10;60.60;;;;;;5070602;28;20239;-69
2023/06/12 09:50:46;;;;;;;3.97;3.50;;;28.20;60.70;;;;;;5054772;28;20239;-70
2023/06/12 09:53:16;;;;;;;5.65;3.60;;;28.30;60.90;;;;;;5070917;28;20189;-69
2023/06/12 09:55:44;;;;;;;3.45;3.15;;;28.40;59.90;;;;;;5070972;28;20176;-69
2023/06/12 09:58:17;;;;;;;4.03;3.63;;;28.50;59.90;;;;;;5070773;28;20226;-69
2023/06/12 10:00:42;;;;;;;3.60;3.30;;;28.50;59.10;;;;;;5071036;28;20188;-69
2023/06/12 10:03:14;;;;;;;3.65;3.30;;;28.70;59.30;;;;;;5071177;28;20437;-70
2023/06/12 10:05:48;;;;;;;4.68;3.70;;;28.80;59.40;;;;;;5070642;28;20169;-69
2023/06/12 10:08:16;;;;;;;3.50;3.20;;;28.90;58.70;;;;;;5070638;28;20172;-69
2023/06/12 10:10:48;;;;;;;4.43;3.72;;;29.00;58.40;;;;;;5059877;28;20259;-69
2023/06/12 10:13:17;;;;;;;4.63;3.33;;;29.10;57.10;;;;;;5050953;28;20161;-69
2023/06/12 10:15:44;;;;;;;5.07;3.38;;;29.20;57.40;;;;;;5029809;28;20177;-69
2023/06/12 10:18:17;;;;;;;4.07;3.67;;;29.40;57.50;;;;;;5027419;28;20200;-70
2023/06/12 10:20:45;;;;;;;3.60;3.30;;;29.40;56.30;;;;;;5037105;28;20220;-69
2023/06/12 10:23:14;;;;;;;3.60;3.28;;;29.50;55.90;;;;;;5036858;28;20177;-68
2023/06/12 10:25:42;;;;;;;3.60;3.30;;;29.60;55.80;;;;;;5053351;28;20226;-70
2023/06/12 10:28:08;;;;;;;4.97;3.65;;;29.60;55.70;;;;;;5053815;28;20173;-70
2023/06/12 10:30:36;;;;;;;3.78;3.47;;;29.70;56.00;;;;;;5053517;28;20197;-69
2023/06/12 10:33:14;;;;;;;3.58;3.28;;;29.70;55.80;;;;;;5053619;28;20200;-69
2023/06/12 10:35:40;;;;;;;5.22;3.45;;;29.80;54.80;;;;;;5053864;28;20203;-69
2023/06/12 10:38:10;;;;;;;3.95;3.42;;;29.90;55.00;;;;;;5053828;28;20165;-70
2023/06/12 10:40:38;;;;;;;3.40;3.10;;;29.90;55.00;;;;;;5053620;28;20296;-70
2023/06/12 10:43:05;;;;;;;3.55;3.08;;;30.10;55.20;;;;;;5053854;28;20264;-70
2023/06/12 10:45:37;;;;;;;3.60;3.30;;;30.20;55.00;;;;;;5053874;28;20196;-70
2023/06/12 10:48:06;;;;;;;3.42;3.13;;;30.40;54.50;;;;;;5053971;28;20173;-68
2023/06/12 10:50:47;;;;;;;3.75;3.30;;;30.60;55.00;;;;;;5037022;28;20244;-70
2023/06/12 10:53:15;;;;;;;3.28;3.08;;;30.80;54.10;;;;;;5056818;28;20161;-69
2023/06/12 10:55:44;;;;;;;4.70;3.08;;;30.90;54.40;;;;;;5057668;28;20201;-69
2023/06/12 10:58:16;;;;;;;3.50;3.20;;;31.00;53.80;;;;;;5057707;28;20199;-70
2023/06/12 11:00:47;;;;;;;3.30;3.00;;;31.20;53.50;;;;;;5040827;28;20367;-69
2023/06/12 11:03:29;;;;;;;3.67;3.38;;;31.30;53.10;;;;;;5040817;28;20523;-68
2023/06/12 11:06:00;;;;;;;3.85;3.55;;;31.40;53.50;;;;;;5040748;28;20215;-67
2023/06/12 11:08:32;;;;;;;4.50;3.38;;;31.60;53.70;;;;;;5040716;28;20271;-68
2023/06/12 11:10:58;;;;;;;3.00;2.75;;;31.70;53.30;;;;;;5040774;28;20344;-71
2023/06/12 11:13:25;;;;;;;6.57;2.92;;;31.90;53.70;;;;;;5040847;28;20173;-70
2023/06/12 11:15:52;;;;;;;3.35;3.05;;;32.00;53.50;;;;;;5057900;28;20157;-68
2023/06/12 11:18:21;;;;;;;3.88;3.47;;;32.20;52.40;;;;;;5037097;28;20209;-69
2023/06/12 11:20:54;;;;;;;4.78;3.75;;;32.20;51.10;;;;;;5037120;28;20203;-67
2023/06/12 11:23:25;;;;;;;3.63;3.22;;;32.30;50.20;;;;;;5036776;28;20193;-69
2023/06/12 11:25:53;;;;;;;4.35;3.50;;;32.30;50.00;;;;;;5037177;28;20208;-70
2023/06/12 11:28:27;;;;;;;5.35;3.40;;;32.30;50.30;;;;;;5037150;28;20263;-70
2023/06/12 11:30:54;;;;;;;7.15;3.00;;;32.10;50.50;;;;;;5037129;28;20215;-68
2023/06/12 11:33:23;;;;;;;3.75;2.88;;;32.10;50.50;;;;;;5036929;28;20169;-69
2023/06/12 11:35:58;;;;;;;3.20;2.90;;;32.20;50.60;;;;;;5036830;28;20173;-69
2023/06/12 11:38:24;;;;;;;3.38;2.75;;;32.40;49.90;;;;;;5037723;28;20279;-69
2023/06/12 11:40:53;;;;;;;2.90;2.70;;;32.50;50.90;;;;;;5020087;28;20201;-69
2023/06/12 11:43:23;;;;;;;3.22;2.90;;;32.70;50.80;;;;;;5020072;28;20201;-68
2023/06/12 11:45:55;;;;;;;3.58;3.28;;;32.90;50.70;;;;;;5019947;28;20228;-68
2023/06/12 11:48:21;;;;;;;3.33;3.00;;;33.20;50.00;;;;;;5020448;28;20193;-69
2023/06/12 11:50:53;;;;;;;3.38;3.08;;;33.30;49.70;;;;;;5019741;28;20181;-69
2023/06/12 11:53:20;;;;;;;3.35;3.05;;;33.40;48.40;;;;;;5019999;28;20193;-68
2023/06/12 11:55:50;;;;;;;3.08;2.80;;;33.50;48.90;;;;;;5019997;28;20173;-69
2023/06/12 11:58:18;;;;;;;3.63;3.25;;;33.60;48.20;;;;;;5020133;28;20193;-67
2023/06/12 12:00:46;;;;;;;3.78;3.13;;;33.70;47.80;;;;;;5020148;28;20178;-68
2023/06/12 12:03:16;;;;;;;3.42;3.13;;;33.70;48.40;;;;;;5034191;28;20204;-68
2023/06/12 12:05:41;;;;;;;3.58;3.25;;;33.80;48.00;;;;;;5035840;28;20169;-67
2023/06/12 12:08:10;;;;;;;3.17;2.88;;;34.00;48.10;;;;;;5036327;28;20230;-68
2023/06/12 12:10:40;;;;;;;3.15;2.85;;;34.10;48.30;;;;;;5036413;28;20169;-70
2023/06/12 12:13:06;;;;;;;3.05;2.78;;;34.30;47.10;;;;;;5035948;28;20173;-68
2023/06/12 12:15:37;;;;;;;3.40;2.78;;;34.40;47.80;;;;;;5053149;28;20187;-68
2023/06/12 12:18:03;;;;;;;5.22;3.20;;;34.50;48.20;;;;;;5039795;28;20161;-70
2023/06/12 12:20:32;;;;;;;3.15;2.90;;;34.60;47.40;;;;;;5039592;28;20175;-67
2023/06/12 12:23:04;;;;;;;3.20;2.90;;;34.70;47.00;;;;;;5039331;28;20168;-69
2023/06/12 12:25:36;;;;;;;3.28;2.97;;;34.70;47.10;;;;;;5031378;28;20444;-69
2023/06/12 12:28:04;;;;;;;3.28;3.00;;;34.90;46.90;;;;;;5036401;28;20189;-69
2023/06/12 12:30:32;;;;;;;3.85;3.40;;;35.00;46.80;;;;;;5019267;28;20193;-67
2023/06/12 12:32:58;;;;;;;4.07;3.13;;;35.00;45.00;;;;;;5019137;28;20228;-69
2023/06/12 12:35:25;;;;;;;3.60;3.30;;;34.90;44.90;;;;;;5019139;28;20259;-66
2023/06/12 12:37:56;;;;;;;4.00;3.60;;;34.70;44.90;;;;;;5019307;28;20200;-68
2023/06/12 12:40:28;;;;;;;3.92;3.30;;;34.60;44.80;;;;;;5019206;28;20201;-68
2023/06/12 12:42:54;;;;;;;3.53;3.15;;;34.60;45.30;;;;;;5019297;28;20181;-68
2023/06/12 12:45:26;;;;;;;3.83;3.42;;;34.50;44.60;;;;;;5019036;28;20220;-69
2023/06/12 12:47:53;;;;;;;3.28;2.97;;;34.50;44.10;;;;;;5019172;28;20263;-68
2023/06/12 12:50:20;;;;;;;3.78;2.92;;;34.60;44.40;;;;;;5034264;28;20209;-68
2023/06/12 12:52:46;;;;;;;3.40;3.10;;;34.60;44.50;;;;;;5038527;28;20172;-69